GMTT/TNG METAR and TAF weather

Enter ICAO airport designator
Station Type Date Time Source
GMTT METAR 2021/09/24 04:00 UTC NOAA

GMTT 240400Z 11002KT 6000 SCT016 BKN200 22/20 Q1012 NOSIG


Station Type Date Time Source
GMTT Decoded METAR 2021/09/24 04:00 UTC NOAA

Tanger Aerodrome , Morocco (GMTT) 35-44N 005-54W 21M
Sep 24, 2021 - 12:00 AM EDT / 2021.09.24 0400 UTC
Wind: from the ESE (110 degrees) at 2 MPH (2 KT):0
Visibility: 3 mile(s):0
Sky conditions: mostly cloudy
Temperature: 71 F (22 C)
Dew Point: 68 F (20 C)
Relative Humidity: 88%
Pressure (altimeter): 29.88 in. Hg (1012 hPa)
ob: GMTT 240400Z 11002KT 6000 SCT016 BKN200 22/20 Q1012 NOSIG
cycle: 4

Station Type Date Time Source
GMTT TAF 2021/09/23 18:27 UTC NOAA

TAF GMTT 231700Z 2318/2424 26005KT 9999 BKN033 BKN066
TEMPO 2402/2407 4000 BR

Example: see airport list